New Oakville Trafalgar Memorial Hospital Heliport

CTM9 · 安大略, 加拿大

使用的METAR站距离机场15 NM。
罗盘
风向 的 风向 的 风向 到 风向 350° 直升机
风: 14 kt, 4 beaufort
0 ft 6.000 12.000 18.000 24.000 30.000
Cloud Cloud Cloud Cloud
SCT 4.600
Cloud Cloud Cloud Cloud Cloud Cloud
BKN 21.000
METAR CYYZ 231900Z 35014KT 310V010 15SM SCT046 BKN210 09/00 A2949 RMK CU4CI2 SLP993

METAR New Oakville Trafalgar Memorial Hospital Heliport - CTM9

New Oakville Trafalgar Memorial Hospital Heliport是,加拿大中的直升机场。 该机场位于纬度43,44910和经度-79,76380。 该机场的伪ICAO代码为CTM9。 机场在Toronto FIR中。

该航空气象观测是针对Lester B Pearson International Airport在2024年2月23日 14:00, 当地时间进行的。

机场观察

风向为350°,速度为14 kt。 风向在310°和010°之间变化。

可见度为15 mi。

有疏云,零星散落的云朵在4.600 ft的高度 和 碎云在21.000 ft的高度。 破损或更高的上限为21.000 ft。

温度为9 °C,阵风为4 °C。 海平面上的气压为29,49 inHg (QNH)。

白天

今天,太阳从07:05升起,在17:59降落。 这适用于New Oakville Trafalgar Memorial Hospital Heliport,世界夏令时可能有所不同。 当地时间与世界标准时间之间的时差为-5 小时。 当前,没有夏令时有效。

公司介绍

我们没有关于这个机场的公司信息。

体会

到Vliegles.nl去找飞行课程,跳伞和其他飞行体验。 浏览页面,了解New Oakville Trafalgar Memorial Hospital Heliport附近所有可用的活动。 你也可以使用搜索功能来寻找你所在地附近的特定飞行课程、跳伞或其他飞行体验。

乌云

4.600 ft SCT 疏云,零星散落的云朵
21.000 ft BKN 碎云

温度 & 天气

温度 9 °C
露点 0 °C
相对湿度 54%
风寒 4 °C
Kp-index 0 (0-9)

评论

SLP993海平面压力为29,51 inHg (29,51 inHg)
CU4CI2

白天

日出
07:05
中午
12:31
日落
17:58 (3:31)

小工具

你想在你的网站上有一个关于New Oakville Trafalgar Memorial Hospital Heliport的当前航空天气(METAR)的小部件吗?

显示HTML代码
?>